Terminal Aerodrome Forecast
Issued by NWS Spokane, WA

Home | Current Version | Previous Version | Text Only | Print | Product List | Glossary On
Versions: 1 2 3 4 5 6 7 8 9 10 11 12 13 14 15 16 17 18 19 20 21 22
000
FTUS46 KOTX 042320
TAFEAT
TAF
KEAT 042320Z 0500/0524 26006KT P6SM SCT080 BKN100 OVC150
     FM050200 30011KT P6SM BKN150
     FM050900 31009KT P6SM SCT050 SCT100 BKN150
     FM051800 29016G24KT P6SM FEW100=

USA.gov is the U.S. government's official web portal to all federal, state and local government web resources and services.